createdAt,value
2023-01-07T00:01:44.764Z,10.10
2023-01-07T00:04:15.623Z,10.00
2023-01-07T00:06:45.164Z,10.40
2023-01-07T00:09:16.749Z,10.30
2023-01-07T00:11:45.811Z,9.20
2023-01-07T00:17:43.688Z,9.70
2023-01-07T00:20:11.989Z,9.70
2023-01-07T00:22:40.049Z,9.30
2023-01-07T00:30:09.946Z,8.10
2023-01-07T00:42:23.490Z,7.40
2023-01-07T00:44:51.526Z,5.90
2023-01-07T00:47:19.597Z,5.70
2023-01-07T00:49:47.746Z,8.00
2023-01-07T00:52:16.227Z,6.60
2023-01-07T00:54:47.602Z,8.10
2023-01-07T01:10:10.497Z,7.90
2023-01-07T01:12:39.715Z,8.70
2023-01-07T01:15:11.631Z,9.60
2023-01-07T01:17:40.607Z,9.30
2023-01-07T01:20:13.185Z,8.80
2023-01-07T01:22:42.126Z,8.90
2023-01-07T01:34:57.982Z,7.70
2023-01-07T01:37:26.668Z,8.00
2023-01-07T01:39:55.264Z,8.60
2023-01-07T01:42:25.134Z,8.50
2023-01-07T01:44:56.030Z,7.10
2023-01-07T01:48:07.631Z,8.30
2023-01-07T01:50:41.489Z,6.70
2023-01-07T01:53:15.693Z,7.10
2023-01-07T01:55:53.642Z,6.90
2023-01-07T01:58:28.948Z,6.80
2023-01-07T02:00:58.766Z,6.70
2023-01-07T02:03:30.309Z,7.60
2023-01-07T02:05:59.136Z,6.90
2023-01-07T02:08:28.443Z,7.70
2023-01-07T02:11:22.135Z,6.90
2023-01-07T02:13:59.268Z,8.10
2023-01-07T02:16:48.665Z,8.00
2023-01-07T02:19:54.112Z,7.60
2023-01-07T02:22:47.069Z,7.50
2023-01-07T02:25:46.284Z,7.70
2023-01-07T02:28:33.142Z,7.40
2023-01-07T02:31:15.368Z,8.20
2023-01-07T02:34:20.649Z,7.90
2023-01-07T02:37:31.603Z,7.90
2023-01-07T02:40:45.040Z,7.60
2023-01-07T02:43:40.147Z,7.10
2023-01-07T02:46:19.638Z,8.20
2023-01-07T02:48:48.049Z,7.70
2023-01-07T02:51:16.549Z,7.90
2023-01-07T02:53:48.587Z,7.40
2023-01-07T02:56:40.543Z,6.70
2023-01-07T02:59:19.502Z,6.70
2023-01-07T03:02:33.703Z,8.00
2023-01-07T03:05:14.351Z,7.10
2023-01-07T03:08:05.027Z,8.20
2023-01-07T03:10:54.887Z,7.70
2023-01-07T03:13:40.635Z,8.00
2023-01-07T03:16:20.569Z,7.40
2023-01-07T03:19:13.895Z,7.80
2023-01-07T03:21:42.034Z,7.30
2023-01-07T03:24:10.141Z,8.60
2023-01-07T03:26:47.513Z,7.50
2023-01-07T03:29:18.867Z,7.80
2023-01-07T03:31:57.550Z,7.80
2023-01-07T03:34:28.817Z,8.50
2023-01-07T03:37:01.544Z,8.70
2023-01-07T03:39:33.187Z,8.20
2023-01-07T03:42:24.965Z,8.90
2023-01-07T03:44:53.378Z,8.70
2023-01-07T03:47:22.696Z,9.20
2023-01-07T03:49:50.762Z,8.80
2023-01-07T03:52:18.822Z,9.80
2023-01-07T03:54:46.924Z,11.90
2023-01-07T03:57:15.379Z,10.30
2023-01-07T03:59:43.392Z,13.10
2023-01-07T04:02:11.637Z,13.00
2023-01-07T04:04:40.125Z,12.80
2023-01-07T04:07:08.660Z,13.80
2023-01-07T04:09:36.739Z,13.90
2023-01-07T04:12:05.623Z,13.90
2023-01-07T04:14:33.701Z,13.40
2023-01-07T04:17:01.678Z,11.20
2023-01-07T04:19:29.840Z,11.20
2023-01-07T04:21:58.188Z,11.50
2023-01-07T04:24:26.506Z,11.80
2023-01-07T04:26:54.852Z,11.00
2023-01-07T04:29:23.435Z,11.00
2023-01-07T04:31:51.903Z,11.00
2023-01-07T04:34:22.620Z,10.50
2023-01-07T04:36:50.653Z,10.10
2023-01-07T04:39:18.662Z,10.30
2023-01-07T04:41:47.181Z,10.10
2023-01-07T04:44:17.585Z,9.80
2023-01-07T04:46:45.911Z,9.70
2023-01-07T04:49:14.171Z,8.80
2023-01-07T04:51:42.535Z,8.50
2023-01-07T04:54:10.844Z,9.50
2023-01-07T04:56:38.782Z,9.90
2023-01-07T04:59:07.052Z,9.90
2023-01-07T05:01:35.297Z,9.00
2023-01-07T05:04:03.653Z,9.90
2023-01-07T05:06:32.586Z,9.80
2023-01-07T05:09:01.318Z,9.80
2023-01-07T05:11:30.178Z,10.80
2023-01-07T05:14:01.013Z,11.40
2023-01-07T05:16:30.309Z,10.60
2023-01-07T05:19:00.926Z,10.80
2023-01-07T05:21:29.072Z,11.60
2023-01-07T05:23:56.981Z,10.90
2023-01-07T05:26:25.043Z,12.30
2023-01-07T05:28:53.454Z,11.70
2023-01-07T05:31:21.573Z,11.90
2023-01-07T05:33:49.755Z,12.00
2023-01-07T05:36:17.809Z,11.70
2023-01-07T05:38:46.149Z,12.10
2023-01-07T05:41:14.176Z,12.80
2023-01-07T05:43:42.190Z,13.70
2023-01-07T05:46:10.321Z,14.50
2023-01-07T05:48:38.287Z,14.80
2023-01-07T05:51:06.514Z,15.10
2023-01-07T05:53:34.725Z,16.30
2023-01-07T05:56:03.099Z,16.60
2023-01-07T05:58:31.391Z,16.50
2023-01-07T06:00:59.392Z,16.70
2023-01-07T06:03:27.566Z,17.40
2023-01-07T06:05:55.602Z,16.70
2023-01-07T06:08:24.234Z,16.50
2023-01-07T06:10:52.262Z,16.10
2023-01-07T06:13:20.269Z,16.80
2023-01-07T06:15:48.373Z,18.20
2023-01-07T06:18:16.366Z,17.60
2023-01-07T06:20:44.618Z,17.70
2023-01-07T06:23:12.556Z,17.20
2023-01-07T06:25:40.595Z,17.80
2023-01-07T06:28:08.602Z,17.40
2023-01-07T06:30:36.597Z,15.80
2023-01-07T06:33:07.721Z,13.90
2023-01-07T06:35:35.775Z,16.40
2023-01-07T06:38:03.767Z,15.10
2023-01-07T06:40:32.135Z,14.30
2023-01-07T06:43:00.220Z,15.40
2023-01-07T06:45:28.279Z,15.80
2023-01-07T06:47:58.519Z,14.50
2023-01-07T06:50:27.003Z,14.00
2023-01-07T06:52:56.917Z,15.40
2023-01-07T06:55:24.911Z,15.80
2023-01-07T06:57:52.907Z,16.20
2023-01-07T07:00:21.546Z,15.30
2023-01-07T07:02:49.683Z,16.70
2023-01-07T07:05:18.270Z,17.00
2023-01-07T07:07:46.254Z,18.70
2023-01-07T07:10:14.683Z,20.20
2023-01-07T07:12:43.757Z,18.80
2023-01-07T07:15:12.633Z,21.50
2023-01-07T07:17:40.763Z,21.60
2023-01-07T07:20:09.327Z,20.50
2023-01-07T07:22:37.815Z,21.90
2023-01-07T07:25:06.774Z,19.60
2023-01-07T07:27:34.722Z,21.20
2023-01-07T07:30:02.666Z,20.10
2023-01-07T07:32:30.720Z,20.40
2023-01-07T07:34:58.865Z,21.20
2023-01-07T07:37:26.866Z,21.00
2023-01-07T07:39:54.890Z,20.60
2023-01-07T07:42:22.991Z,21.10
2023-01-07T07:44:53.597Z,21.50
2023-01-07T07:47:22.093Z,20.60
2023-01-07T07:49:54.253Z,19.50
2023-01-07T07:52:48.497Z,20.50
2023-01-07T07:55:20.259Z,19.90
2023-01-07T07:57:58.607Z,20.10
2023-01-07T08:00:26.692Z,18.50
2023-01-07T08:02:58.546Z,19.70
2023-01-07T08:05:27.816Z,19.80
2023-01-07T08:07:56.751Z,23.20
2023-01-07T08:10:27.295Z,22.40
2023-01-07T08:12:55.344Z,23.70
2023-01-07T08:15:23.324Z,23.80
2023-01-07T08:18:02.617Z,22.40
2023-01-07T08:20:31.236Z,22.20
2023-01-07T08:23:00.993Z,22.70
2023-01-07T08:25:30.623Z,22.00
2023-01-07T08:27:59.993Z,22.30
2023-01-07T08:30:29.382Z,24.20
2023-01-07T08:32:58.223Z,22.80
2023-01-07T08:35:26.606Z,23.40
2023-01-07T08:38:07.907Z,24.00
2023-01-07T08:40:37.544Z,25.30
2023-01-07T08:43:09.052Z,26.40
2023-01-07T08:45:36.966Z,28.40
2023-01-07T08:48:05.437Z,27.30
2023-01-07T08:50:34.145Z,28.70
2023-01-07T08:53:02.382Z,27.70
2023-01-07T08:55:30.318Z,27.00
2023-01-07T08:57:58.697Z,27.00
2023-01-07T09:00:26.665Z,25.20
2023-01-07T09:02:54.768Z,29.10
2023-01-07T09:05:24.593Z,34.70
2023-01-07T09:07:53.717Z,30.90
2023-01-07T09:10:21.661Z,27.50
2023-01-07T09:12:50.153Z,29.90
2023-01-07T09:15:18.253Z,25.60
2023-01-07T09:17:46.225Z,30.30
2023-01-07T09:20:14.293Z,25.70
2023-01-07T09:22:42.199Z,23.10
2023-01-07T09:25:10.296Z,22.90
2023-01-07T09:27:38.734Z,21.70
2023-01-07T09:30:08.260Z,20.70
2023-01-07T09:32:36.832Z,20.30
2023-01-07T09:35:06.291Z,20.60
2023-01-07T09:37:34.457Z,19.60
2023-01-07T09:40:04.003Z,20.80
2023-01-07T09:42:50.379Z,21.90
2023-01-07T09:45:33.376Z,20.40
2023-01-07T09:48:05.937Z,21.30
2023-01-07T09:50:47.779Z,22.60
2023-01-07T09:53:38.924Z,23.10
2023-01-07T09:56:15.659Z,24.20
2023-01-07T10:01:31.812Z,23.60
2023-01-07T10:03:59.824Z,24.20
2023-01-07T10:06:58.041Z,25.70
2023-01-07T10:09:26.405Z,22.50
2023-01-07T10:12:16.908Z,24.80
2023-01-07T10:15:09.548Z,24.10
2023-01-07T10:17:47.092Z,24.40
2023-01-07T10:20:44.288Z,27.60
2023-01-07T10:23:32.203Z,29.10
2023-01-07T10:26:02.522Z,25.90
2023-01-07T10:28:57.400Z,27.80
2023-01-07T10:31:27.471Z,25.70
2023-01-07T10:33:57.589Z,25.50
2023-01-07T10:36:31.075Z,26.70
2023-01-07T10:39:21.888Z,24.60
2023-01-07T10:41:55.904Z,26.30
2023-01-07T10:44:26.584Z,25.20
2023-01-07T10:46:57.392Z,26.80
2023-01-07T10:49:54.472Z,26.80
2023-01-07T10:52:37.827Z,25.40
2023-01-07T10:55:42.474Z,24.50
2023-01-07T10:58:11.460Z,26.00
2023-01-07T11:05:25.053Z,23.60
2023-01-07T11:07:59.770Z,24.50
2023-01-07T11:10:36.451Z,25.20
2023-01-07T11:15:56.636Z,23.90
2023-01-07T11:18:32.217Z,35.60
2023-01-07T11:21:00.616Z,27.80
2023-01-07T11:23:31.616Z,25.30
2023-01-07T11:26:23.056Z,26.30
2023-01-07T11:28:56.787Z,24.90
2023-01-07T11:31:48.994Z,24.00
2023-01-07T11:34:22.438Z,24.40
2023-01-07T11:36:51.720Z,22.10
2023-01-07T11:39:23.318Z,23.50
2023-01-07T11:41:59.580Z,22.00
2023-01-07T11:44:27.986Z,23.00
2023-01-07T11:46:56.583Z,24.70
2023-01-07T11:49:30.980Z,23.60
2023-01-07T11:51:59.133Z,23.80
2023-01-07T11:54:29.500Z,23.10
2023-01-07T11:57:22.537Z,23.80
2023-01-07T12:00:11.584Z,24.20
2023-01-07T12:02:39.912Z,23.60
2023-01-07T12:05:28.991Z,23.40
2023-01-07T12:07:59.137Z,23.70
2023-01-07T12:10:38.729Z,24.10
2023-01-07T12:13:20.513Z,24.50
2023-01-07T12:16:02.889Z,26.00
2023-01-07T12:18:52.868Z,23.60
2023-01-07T12:21:39.211Z,24.50
2023-01-07T12:24:19.545Z,25.30
2023-01-07T12:27:18.204Z,23.50
2023-01-07T12:30:01.365Z,23.40
2023-01-07T12:32:54.937Z,24.50
2023-01-07T12:35:53.528Z,25.30
2023-01-07T12:39:02.684Z,28.20
2023-01-07T12:41:36.914Z,25.60
2023-01-07T12:44:07.511Z,26.60
2023-01-07T12:51:39.314Z,23.90
2023-01-07T13:21:59.489Z,23.80
2023-01-07T13:47:22.565Z,25.30
2023-01-07T13:49:59.980Z,25.40
2023-01-07T13:52:31.439Z,28.50
2023-01-07T13:55:02.424Z,26.90
2023-01-07T13:57:30.315Z,26.30
2023-01-07T14:00:00.441Z,26.30
2023-01-07T14:02:29.977Z,26.50
2023-01-07T14:05:11.446Z,24.20
2023-01-07T14:07:48.393Z,24.20
2023-01-07T14:10:24.518Z,25.80
2023-01-07T14:13:15.567Z,24.60
2023-01-07T14:15:54.917Z,24.40
2023-01-07T14:18:35.137Z,24.20
2023-01-07T14:21:09.182Z,22.90
2023-01-07T14:24:12.514Z,23.10
2023-01-07T14:27:17.515Z,23.20
2023-01-07T14:29:52.543Z,25.00
2023-01-07T14:35:03.462Z,24.80
2023-01-07T14:37:42.950Z,23.30
2023-01-07T14:40:26.227Z,24.60
2023-01-07T14:42:55.838Z,25.50
2023-01-07T14:45:36.226Z,25.20
2023-01-07T14:48:12.880Z,26.60
2023-01-07T14:51:06.022Z,41.20
2023-01-07T14:54:11.144Z,32.60
2023-01-07T14:57:01.043Z,26.70
2023-01-07T14:59:53.995Z,24.60
2023-01-07T15:02:59.913Z,24.50
2023-01-07T15:06:04.246Z,24.40
2023-01-07T15:09:25.043Z,22.60
2023-01-07T15:12:14.713Z,22.70
2023-01-07T15:15:23.656Z,22.70
2023-01-07T15:17:51.766Z,24.00
2023-01-07T15:20:19.881Z,24.10
2023-01-07T15:23:03.075Z,23.90
2023-01-07T15:25:49.733Z,25.20
2023-01-07T15:28:34.664Z,25.30
2023-01-07T15:31:21.508Z,24.60
2023-01-07T15:34:11.872Z,25.50
2023-01-07T15:36:46.012Z,24.40
2023-01-07T15:39:28.726Z,26.50
2023-01-07T15:41:58.327Z,25.10
2023-01-07T15:44:40.856Z,25.30
2023-01-07T15:47:29.891Z,26.20
2023-01-07T15:50:11.896Z,28.70
2023-01-07T15:52:39.787Z,29.00
2023-01-07T15:55:15.334Z,30.20
2023-01-07T15:57:44.139Z,30.70
2023-01-07T16:00:14.215Z,29.60
2023-01-07T16:02:44.005Z,32.80
2023-01-07T16:05:12.079Z,32.80
2023-01-07T16:07:58.169Z,35.10
2023-01-07T16:10:32.800Z,34.80
2023-01-07T16:13:20.525Z,37.60
2023-01-07T16:15:55.019Z,34.00
2023-01-07T16:18:23.533Z,38.20
2023-01-07T16:20:54.172Z,37.30
2023-01-07T16:23:31.648Z,35.90
2023-01-07T16:26:04.954Z,36.20
2023-01-07T16:28:45.941Z,32.70
2023-01-07T16:31:16.820Z,26.50
2023-01-07T16:33:47.012Z,24.80
2023-01-07T16:36:18.280Z,27.30
2023-01-07T16:38:50.086Z,30.50
2023-01-07T16:41:29.873Z,32.60
2023-01-07T16:44:01.306Z,30.50
2023-01-07T16:46:37.125Z,29.70
2023-01-07T16:49:11.204Z,32.20
2023-01-07T16:51:44.649Z,30.70
2023-01-07T16:54:24.854Z,31.90
2023-01-07T16:57:11.007Z,31.90
2023-01-07T16:59:45.853Z,28.20
2023-01-07T17:02:35.106Z,28.70
2023-01-07T17:05:32.363Z,28.10
2023-01-07T17:08:05.223Z,29.80
2023-01-07T17:10:38.850Z,30.40
2023-01-07T17:13:26.717Z,29.10
2023-01-07T17:16:25.288Z,28.70
2023-01-07T17:18:54.704Z,29.20
2023-01-07T17:21:33.199Z,29.70
2023-01-07T17:24:01.136Z,30.90
2023-01-07T17:26:29.548Z,32.40
2023-01-07T17:29:13.187Z,32.40
2023-01-07T17:31:41.587Z,30.00
2023-01-07T17:34:12.864Z,33.20
2023-01-07T17:36:40.804Z,30.60
2023-01-07T17:39:08.768Z,32.50
2023-01-07T17:41:56.356Z,30.60
2023-01-07T17:44:24.321Z,29.30
2023-01-07T17:46:52.346Z,31.60
2023-01-07T17:49:20.687Z,31.60
2023-01-07T17:51:49.504Z,29.70
2023-01-07T17:54:23.286Z,29.40
2023-01-07T17:56:52.523Z,29.80
2023-01-07T17:59:22.884Z,29.40
2023-01-07T18:01:55.152Z,28.10
2023-01-07T18:04:23.423Z,28.70
2023-01-07T18:06:51.328Z,26.40
2023-01-07T18:09:19.365Z,29.30
2023-01-07T18:12:06.143Z,27.30
2023-01-07T18:14:34.076Z,27.20
2023-01-07T18:17:02.033Z,28.90
2023-01-07T18:19:30.013Z,26.40
2023-01-07T18:21:57.982Z,27.70
2023-01-07T18:24:25.953Z,25.70
2023-01-07T18:26:56.351Z,26.80
2023-01-07T18:29:24.583Z,27.10
2023-01-07T18:31:52.664Z,22.80
2023-01-07T18:34:20.681Z,25.60
2023-01-07T18:36:48.744Z,26.60
2023-01-07T18:39:19.955Z,24.20
2023-01-07T18:41:51.383Z,22.70
2023-01-07T18:44:21.044Z,22.30
2023-01-07T18:46:49.077Z,19.40
2023-01-07T18:49:17.158Z,19.20
2023-01-07T18:51:47.203Z,18.80
2023-01-07T18:54:16.340Z,16.00
2023-01-07T18:56:45.899Z,22.50
2023-01-07T18:59:14.248Z,20.40
2023-01-07T19:01:42.253Z,15.90
2023-01-07T19:04:10.580Z,21.10
2023-01-07T19:06:38.682Z,23.70
2023-01-07T19:09:06.654Z,21.60
2023-01-07T19:11:34.675Z,20.80
2023-01-07T19:14:02.695Z,22.40
2023-01-07T19:16:30.651Z,19.80
2023-01-07T19:18:58.598Z,31.00
2023-01-07T19:21:27.585Z,31.70
2023-01-07T19:23:55.838Z,26.70
2023-01-07T19:26:23.761Z,28.20
2023-01-07T19:28:51.726Z,25.50
2023-01-07T19:31:19.708Z,25.70
2023-01-07T19:33:47.748Z,31.00
2023-01-07T19:36:17.715Z,30.10
2023-01-07T19:38:48.073Z,27.70
2023-01-07T19:41:19.148Z,27.60
2023-01-07T19:43:48.185Z,29.70
2023-01-07T19:46:16.312Z,30.10
2023-01-07T19:48:47.383Z,29.80
2023-01-07T19:51:15.600Z,32.00
2023-01-07T19:53:43.688Z,34.90
2023-01-07T19:56:12.599Z,31.40
2023-01-07T19:58:42.037Z,28.80
2023-01-07T20:01:17.311Z,32.00
2023-01-07T20:03:45.631Z,30.30
2023-01-07T20:06:16.838Z,31.40
2023-01-07T20:08:45.580Z,29.90
2023-01-07T20:11:14.729Z,31.10
2023-01-07T20:13:46.438Z,29.00
2023-01-07T20:16:15.907Z,32.00
2023-01-07T20:18:46.825Z,31.30
2023-01-07T20:21:16.726Z,32.10
2023-01-07T20:23:45.417Z,31.60
2023-01-07T20:26:16.245Z,31.40
2023-01-07T20:28:44.309Z,26.70
2023-01-07T20:31:14.707Z,28.80
2023-01-07T20:33:44.299Z,30.30
2023-01-07T20:36:16.981Z,29.10
2023-01-07T20:38:46.522Z,30.40
2023-01-07T20:41:20.916Z,29.50
2023-01-07T20:43:57.118Z,27.90
2023-01-07T20:46:27.178Z,28.20
2023-01-07T20:48:56.092Z,29.50
2023-01-07T20:51:24.969Z,26.60
2023-01-07T20:53:54.011Z,27.30
2023-01-07T20:56:23.395Z,30.90
2023-01-07T20:58:52.039Z,31.10
2023-01-07T21:01:21.460Z,33.60
2023-01-07T21:03:49.701Z,34.00
2023-01-07T21:06:20.446Z,25.60
2023-01-07T21:08:50.529Z,24.40
2023-01-07T21:11:21.612Z,28.60
2023-01-07T21:13:51.796Z,26.60
2023-01-07T21:16:19.892Z,26.80
2023-01-07T21:18:48.613Z,28.60
2023-01-07T21:21:20.438Z,29.90
2023-01-07T21:23:49.231Z,27.50
2023-01-07T21:26:18.713Z,25.30
2023-01-07T21:28:46.844Z,24.50
2023-01-07T21:31:17.313Z,24.40
2023-01-07T21:33:46.302Z,24.40
2023-01-07T21:36:21.511Z,29.10
2023-01-07T21:38:54.962Z,24.30
2023-01-07T21:41:24.282Z,25.70
2023-01-07T21:43:53.098Z,26.70
2023-01-07T21:46:25.349Z,26.80
2023-01-07T21:48:53.633Z,29.80
2023-01-07T21:51:24.429Z,30.20
2023-01-07T21:53:57.967Z,29.10
2023-01-07T21:56:30.080Z,31.60
2023-01-07T21:59:02.233Z,32.90
2023-01-07T22:01:32.856Z,35.40
2023-01-07T22:04:03.208Z,31.60
2023-01-07T22:06:36.722Z,28.90
2023-01-07T22:09:07.809Z,30.90
2023-01-07T22:11:38.816Z,35.70
2023-01-07T22:14:14.031Z,35.50
2023-01-07T22:16:44.290Z,33.20
2023-01-07T22:19:14.042Z,28.40
2023-01-07T22:21:42.492Z,27.30
2023-01-07T22:24:14.565Z,29.80
2023-01-07T22:26:45.086Z,30.00
2023-01-07T22:29:17.669Z,24.80
2023-01-07T22:31:50.113Z,27.00
2023-01-07T22:34:19.702Z,26.20
2023-01-07T22:36:53.256Z,27.60
2023-01-07T22:39:28.974Z,27.30
2023-01-07T22:42:02.955Z,31.50
2023-01-07T22:44:36.819Z,27.40
2023-01-07T22:47:09.462Z,25.50
2023-01-07T22:49:40.647Z,28.20
2023-01-07T22:52:08.810Z,28.50
2023-01-07T22:54:37.103Z,32.80
2023-01-07T22:57:08.706Z,27.40
2023-01-07T22:59:40.877Z,32.40
2023-01-07T23:02:12.182Z,27.00
2023-01-07T23:04:40.916Z,26.20
2023-01-07T23:07:09.481Z,26.80
2023-01-07T23:09:37.621Z,25.40
2023-01-07T23:12:05.781Z,22.70
2023-01-07T23:14:33.722Z,24.60
2023-01-07T23:17:01.752Z,24.40
2023-01-07T23:19:32.003Z,24.80
2023-01-07T23:22:00.175Z,23.00
2023-01-07T23:24:28.108Z,25.90
2023-01-07T23:26:57.345Z,22.60
2023-01-07T23:29:25.609Z,23.10
2023-01-07T23:31:54.150Z,21.20
2023-01-07T23:34:22.226Z,22.50
2023-01-07T23:36:50.325Z,21.10
2023-01-07T23:39:18.396Z,20.10
2023-01-07T23:41:46.371Z,21.80
2023-01-07T23:44:14.441Z,19.20
2023-01-07T23:46:42.386Z,23.20
2023-01-07T23:49:10.328Z,19.80
2023-01-07T23:51:40.248Z,22.10
2023-01-07T23:54:08.110Z,19.70
2023-01-07T23:56:37.687Z,21.10
2023-01-07T23:59:06.676Z,19.20
